Time;durP1;ratioP1;P1;durP2;ratioP2;P2;SDS_P1;SDS_P2;PMS_P1;PMS_P2;Temp;Humidity;BMP_temperature;BMP_pressure;BME280_temperature;BME280_humidity;BME280_pressure;Samples;Min_cycle;Max_cycle;Signal;HPM_P1;HPM_P2
2021/07/23 00:00:45;;;;;;;4.70;4.20;;;;;;;;;;473271;249;27514;-69
2021/07/23 00:02:47;;;;;;;6.10;5.03;;;;;;;;;;473298;250;26386;-69
2021/07/23 00:04:48;;;;;;;5.13;4.57;;;15.10;99.90;;;;;;473284;251;27653;-69
2021/07/23 00:06:50;;;;;;;6.93;4.63;;;;;;;;;;473287;250;28923;-71
2021/07/23 00:08:52;;;;;;;6.17;5.27;;;15.00;99.90;;;;;;473265;251;27561;-68
2021/07/23 00:10:54;;;;;;;4.83;4.40;;;15.00;99.90;;;;;;473256;250;28130;-69
2021/07/23 00:12:57;;;;;;;6.17;4.87;;;;;;;;;;473270;248;27564;-69
2021/07/23 00:14:59;;;;;;;5.70;5.20;;;;;;;;;;473232;251;27545;-72
2021/07/23 00:17:01;;;;;;;6.00;4.93;;;;;;;;;;473261;251;27553;-72
2021/07/23 00:19:03;;;;;;;5.80;4.60;;;15.00;99.90;;;;;;473272;251;27618;-71
2021/07/23 00:21:05;;;;;;;5.07;4.50;;;;;;;;;;473294;250;27566;-69
2021/07/23 00:23:08;;;;;;;5.17;4.40;;;;;;;;;;473224;251;27572;-69
2021/07/23 00:25:10;;;;;;;6.37;4.73;;;;;;;;;;473227;251;26386;-69
2021/07/23 00:27:12;;;;;;;5.57;4.37;;;;;;;;;;473239;251;27538;-70
2021/07/23 00:29:14;;;;;;;4.90;4.20;;;;;;;;;;473290;250;27606;-71
2021/07/23 00:31:16;;;;;;;4.73;4.23;;;;;;;;;;473280;251;28747;-71
2021/07/23 00:33:18;;;;;;;4.37;3.97;;;14.80;99.90;;;;;;473289;251;28751;-71
2021/07/23 00:35:21;;;;;;;5.23;4.57;;;14.80;99.90;;;;;;473280;250;27565;-71
2021/07/23 00:37:23;;;;;;;5.30;4.80;;;14.90;99.90;;;;;;473277;250;27568;-72
2021/07/23 00:39:26;;;;;;;5.47;4.70;;;;;;;;;;473279;250;27585;-71
2021/07/23 00:41:28;;;;;;;7.80;4.80;;;;;;;;;;473281;251;26380;-69
2021/07/23 00:43:31;;;;;;;4.83;4.33;;;;;;;;;;473277;250;28164;-68
2021/07/23 00:45:32;;;;;;;5.17;4.67;;;14.80;99.90;;;;;;473280;251;26888;-69
2021/07/23 00:47:34;;;;;;;4.90;4.40;;;14.80;99.90;;;;;;473291;250;28879;-69
2021/07/23 00:49:35;;;;;;;5.80;5.10;;;14.70;99.90;;;;;;473292;250;28904;-69
2021/07/23 00:51:37;;;;;;;5.23;4.13;;;;;;;;;;473320;248;28917;-71
2021/07/23 00:53:38;;;;;;;4.43;4.00;;;14.80;99.90;;;;;;473304;251;27553;-70
2021/07/23 00:55:41;;;;;;;5.20;4.17;;;;;;;;;;473335;250;28888;-69
2021/07/23 00:57:44;;;;;;;5.00;4.10;;;;;;;;;;473329;251;27004;-70
2021/07/23 00:59:46;;;;;;;4.80;4.10;;;;;;;;;;473318;251;28130;-71
2021/07/23 01:01:48;;;;;;;5.60;5.07;;;;;;;;;;473318;251;27570;-69
2021/07/23 01:03:50;;;;;;;5.33;4.67;;;14.60;99.90;;;;;;473327;250;27629;-69
2021/07/23 01:05:52;;;;;;;5.23;4.73;;;;;;;;;;473299;250;27571;-68
2021/07/23 01:07:54;;;;;;;5.53;4.70;;;14.50;99.90;;;;;;473267;251;27659;-70
2021/07/23 01:09:57;;;;;;;5.90;4.97;;;;;;;;;;473260;250;27641;-70
2021/07/23 01:11:59;;;;;;;5.40;4.77;;;14.50;99.90;;;;;;473288;251;26429;-71
2021/07/23 01:14:02;;;;;;;5.27;4.53;;;;;;;;;;473294;248;27981;-69
2021/07/23 01:16:03;;;;;;;5.10;4.60;;;;;;;;;;473279;251;28066;-71
2021/07/23 01:18:05;;;;;;;7.03;4.87;;;;;;;;;;473304;251;27996;-71
2021/07/23 01:20:07;;;;;;;5.90;4.60;;;;;;;;;;473303;251;27524;-71
2021/07/23 01:22:11;;;;;;;4.90;4.40;;;;;;;;;;473325;251;27565;-71
2021/07/23 01:24:14;;;;;;;6.50;4.90;;;14.40;99.90;;;;;;473286;251;26839;-70
2021/07/23 01:26:17;;;;;;;5.00;4.50;;;;;;;;;;473334;246;28008;-68
2021/07/23 01:28:19;;;;;;;9.93;4.87;;;;;;;;;;473343;251;26385;-70
2021/07/23 01:30:22;;;;;;;5.53;4.70;;;;;;;;;;473316;251;27664;-68
2021/07/23 01:32:24;;;;;;;6.00;5.17;;;;;;;;;;473321;251;26396;-69
2021/07/23 01:34:26;;;;;;;12.80;4.43;;;;;;;;;;473291;251;28068;-70
2021/07/23 01:36:29;;;;;;;4.80;4.30;;;;;;;;;;473311;251;28019;-70
2021/07/23 01:38:31;;;;;;;4.93;4.37;;;;;;;;;;473256;251;26905;-69
2021/07/23 01:40:32;;;;;;;5.30;4.53;;;14.10;99.90;;;;;;473316;251;27965;-70
2021/07/23 01:42:36;;;;;;;5.13;4.63;;;;;;;;;;473324;250;28872;-69
2021/07/23 01:44:39;;;;;;;4.40;4.00;;;;;;;;;;473317;250;26509;-69
2021/07/23 01:46:41;;;;;;;7.40;5.20;;;;;;;;;;473317;251;26380;-71
2021/07/23 01:48:43;;;;;;;5.43;4.93;;;;;;;;;;473303;251;27698;-71
2021/07/23 01:50:46;;;;;;;6.60;5.30;;;;;;;;;;473315;251;27636;-69
2021/07/23 01:52:48;;;;;;;4.80;4.40;;;;;;;;;;473215;251;26377;-70
2021/07/23 01:54:50;;;;;;;5.20;4.70;;;;;;;;;;473301;251;27579;-71
2021/07/23 01:56:52;;;;;;;6.03;4.70;;;;;;;;;;473343;251;27632;-69
2021/07/23 01:58:55;;;;;;;5.70;4.80;;;;;;;;;;473319;251;27549;-69
2021/07/23 02:00:58;;;;;;;5.07;4.30;;;;;;;;;;473311;251;26414;-70
2021/07/23 02:03:00;;;;;;;5.60;4.97;;;13.80;99.90;;;;;;473257;251;26401;-69
2021/07/23 02:05:03;;;;;;;5.17;4.43;;;;;;;;;;473289;250;28358;-70
2021/07/23 02:07:04;;;;;;;4.90;4.50;;;;;;;;;;473196;251;27524;-70
2021/07/23 02:09:06;;;;;;;6.50;5.20;;;13.70;99.90;;;;;;473281;250;27537;-71
2021/07/23 02:11:08;;;;;;;6.13;4.70;;;;;;;;;;473299;250;27945;-69
2021/07/23 02:13:10;;;;;;;5.20;4.60;;;;;;;;;;473278;251;28143;-69
2021/07/23 02:15:13;;;;;;;6.07;4.43;;;;;;;;;;473293;249;27998;-69
2021/07/23 02:17:15;;;;;;;5.50;4.73;;;;;;;;;;473299;251;27063;-68
2021/07/23 02:19:17;;;;;;;5.23;4.73;;;13.60;99.90;;;;;;473304;251;28119;-69
2021/07/23 02:21:19;;;;;;;6.07;4.47;;;13.60;99.90;;;;;;473291;250;27582;-69
2021/07/23 02:23:21;;;;;;;5.70;4.80;;;13.60;99.90;;;;;;473285;250;28496;-68
2021/07/23 02:25:23;;;;;;;5.03;4.40;;;;;;;;;;473295;250;27894;-69
2021/07/23 02:27:26;;;;;;;6.90;5.20;;;;;;;;;;473288;251;28418;-69
2021/07/23 02:29:27;;;;;;;5.27;4.50;;;13.50;99.90;;;;;;473301;248;26598;-68
2021/07/23 02:31:28;;;;;;;4.63;4.13;;;13.60;99.90;;;;;;473286;250;28360;-71
2021/07/23 02:33:30;;;;;;;4.73;4.30;;;13.60;99.90;;;;;;473279;248;28635;-69
2021/07/23 02:35:32;;;;;;;5.23;4.67;;;13.60;99.90;;;;;;473277;248;27972;-69
2021/07/23 02:37:33;;;;;;;4.70;4.20;;;13.50;99.90;;;;;;473301;247;28943;-69
2021/07/23 02:39:34;;;;;;;5.33;4.80;;;13.50;99.90;;;;;;473321;248;28459;-69
2021/07/23 02:41:35;;;;;;;6.33;5.10;;;13.40;99.90;;;;;;473303;250;28297;-69
2021/07/23 02:43:37;;;;;;;5.60;5.10;;;13.40;99.90;;;;;;473295;250;28395;-69
2021/07/23 02:45:39;;;;;;;5.23;4.50;;;;;;;;;;473268;250;28639;-69
2021/07/23 02:47:41;;;;;;;4.60;4.10;;;;;;;;;;473336;251;27588;-69
2021/07/23 02:49:43;;;;;;;5.67;4.60;;;;;;;;;;473333;251;27659;-69
2021/07/23 02:51:44;;;;;;;4.80;4.23;;;13.40;99.90;;;;;;473223;249;28903;-69
2021/07/23 02:53:46;;;;;;;7.07;4.40;;;;;;;;;;473291;250;28492;-69
2021/07/23 02:55:51;;;;;;;5.27;4.77;;;;;;;;;;473288;251;27656;-69
2021/07/23 02:57:51;;;;;;;5.27;4.53;;;13.40;99.90;;;;;;473244;251;26473;-69
2021/07/23 02:59:54;;;;;;;4.23;3.80;;;;;;;;;;473294;249;28535;-69
2021/07/23 03:01:56;;;;;;;4.73;4.23;;;;;;;;;;473298;250;26407;-70
2021/07/23 03:03:58;;;;;;;5.40;3.90;;;13.30;99.90;;;;;;473299;251;27559;-70
2021/07/23 03:06:00;;;;;;;7.07;4.90;;;13.30;99.90;;;;;;473282;250;28018;-69
2021/07/23 03:08:01;;;;;;;3.93;3.63;;;13.30;99.90;;;;;;473307;250;28757;-69
2021/07/23 03:10:02;;;;;;;5.10;4.60;;;13.40;99.90;;;;;;473291;250;28824;-70
2021/07/23 03:12:03;;;;;;;5.57;4.90;;;13.40;99.90;;;;;;473296;248;29935;-69
2021/07/23 03:14:05;;;;;;;4.93;4.30;;;13.40;99.90;;;;;;473272;250;28781;-69
2021/07/23 03:16:11;;;;;;;5.50;4.90;;;13.30;99.90;;;;;;479969;238;28342;-69
2021/07/23 03:18:07;;;;;;;5.10;4.60;;;13.30;99.90;;;;;;481407;247;28221;-69
2021/07/23 03:20:08;;;;;;;4.83;3.90;;;13.30;99.90;;;;;;481737;247;28251;-68
2021/07/23 03:22:10;;;;;;;4.27;3.87;;;13.30;99.90;;;;;;481729;247;28239;-69
2021/07/23 03:24:11;;;;;;;5.10;4.50;;;13.20;99.90;;;;;;481754;247;28250;-69
2021/07/23 03:26:13;;;;;;;5.00;4.50;;;;;;;;;;481698;247;28351;-69
2021/07/23 03:28:14;;;;;;;6.60;4.80;;;13.20;99.90;;;;;;464016;256;26673;-69
2021/07/23 03:30:16;;;;;;;5.63;4.77;;;13.20;99.90;;;;;;481754;246;28188;-69
2021/07/23 03:32:18;;;;;;;5.57;4.47;;;;;;;;;;481737;247;28113;-69
2021/07/23 03:34:19;;;;;;;4.57;4.17;;;13.10;99.90;;;;;;464249;256;26656;-69
2021/07/23 03:36:21;;;;;;;6.10;4.33;;;13.10;99.90;;;;;;481707;246;29185;-69
2021/07/23 03:38:22;;;;;;;4.87;4.33;;;13.10;99.90;;;;;;481730;247;29423;-69
2021/07/23 03:40:23;;;;;;;5.17;4.40;;;13.00;99.90;;;;;;481728;247;29302;-69
2021/07/23 03:42:24;;;;;;;6.43;4.63;;;13.00;99.90;;;;;;481737;247;28305;-69
2021/07/23 03:44:26;;;;;;;6.07;4.80;;;13.00;99.90;;;;;;481738;247;28263;-69
2021/07/23 03:46:27;;;;;;;5.67;4.47;;;13.00;99.90;;;;;;481743;247;28301;-69
2021/07/23 03:48:28;;;;;;;5.87;4.97;;;13.00;99.90;;;;;;481738;247;28304;-69
2021/07/23 03:50:29;;;;;;;5.40;4.60;;;13.00;99.90;;;;;;481734;247;28221;-69
2021/07/23 03:52:31;;;;;;;5.57;4.47;;;13.00;99.90;;;;;;481776;247;28309;-69
2021/07/23 03:54:32;;;;;;;5.30;4.73;;;13.00;99.90;;;;;;481746;247;28357;-69
2021/07/23 03:56:33;;;;;;;5.03;4.10;;;13.00;99.90;;;;;;481724;247;28257;-69
2021/07/23 03:58:36;;;;;;;4.60;4.00;;;13.00;99.90;;;;;;481666;247;28330;-69
2021/07/23 04:00:36;;;;;;;4.97;4.40;;;13.00;99.90;;;;;;481665;247;28698;-69
2021/07/23 04:02:37;;;;;;;5.10;4.07;;;13.10;99.90;;;;;;481738;247;28803;-69
2021/07/23 04:04:38;;;;;;;5.23;4.30;;;13.00;99.90;;;;;;481734;247;28751;-69
2021/07/23 04:06:39;;;;;;;5.60;4.03;;;13.00;99.90;;;;;;481751;247;28244;-68
2021/07/23 04:08:41;;;;;;;5.90;4.13;;;13.00;99.90;;;;;;481715;247;28321;-69
2021/07/23 04:10:42;;;;;;;5.67;4.53;;;13.00;99.90;;;;;;481583;247;28223;-71
2021/07/23 04:12:43;;;;;;;5.07;4.07;;;13.00;99.90;;;;;;481197;247;28263;-69
2021/07/23 04:14:44;;;;;;;4.63;4.23;;;13.00;99.90;;;;;;481374;247;28313;-68
2021/07/23 04:16:46;;;;;;;4.47;4.03;;;13.00;99.90;;;;;;481472;247;28330;-69
2021/07/23 04:18:47;;;;;;;6.63;4.60;;;13.00;99.90;;;;;;481646;247;28239;-69
2021/07/23 04:20:49;;;;;;;4.70;4.23;;;;;;;;;;481689;247;28333;-69
2021/07/23 04:22:51;;;;;;;5.07;4.23;;;13.00;99.90;;;;;;464244;256;26716;-69
2021/07/23 04:24:52;;;;;;;5.43;4.10;;;12.90;99.90;;;;;;481691;246;28550;-69
2021/07/23 04:26:53;;;;;;;6.23;4.10;;;13.00;99.90;;;;;;481746;247;28240;-69
2021/07/23 04:28:54;;;;;;;5.23;4.10;;;13.00;99.90;;;;;;481753;247;28262;-69
2021/07/23 04:30:56;;;;;;;5.00;4.00;;;13.00;99.90;;;;;;481743;247;28249;-69
2021/07/23 04:32:57;;;;;;;4.63;4.03;;;13.00;99.90;;;;;;481776;247;28118;-69
2021/07/23 04:34:58;;;;;;;5.10;4.47;;;13.00;99.90;;;;;;481761;247;28312;-69
2021/07/23 04:37:00;;;;;;;5.50;4.40;;;13.10;99.90;;;;;;481756;247;28720;-69
2021/07/23 04:39:03;;;;;;;4.80;4.30;;;13.10;99.90;;;;;;481715;247;28665;-69
2021/07/23 04:41:02;;;;;;;4.67;3.90;;;13.10;99.90;;;;;;481599;247;28903;-69
2021/07/23 04:43:03;;;;;;;6.20;3.80;;;13.10;99.90;;;;;;481750;247;28731;-69
2021/07/23 04:45:05;;;;;;;4.67;4.20;;;13.10;99.90;;;;;;481749;247;28300;-69
2021/07/23 04:47:07;;;;;;;4.60;3.90;;;;;;;;;;481655;247;28331;-69
2021/07/23 04:49:08;;;;;;;4.20;3.60;;;13.10;99.90;;;;;;464249;256;26751;-69
2021/07/23 04:51:09;;;;;;;5.63;4.67;;;13.20;99.90;;;;;;481751;246;28833;-69
2021/07/23 04:53:11;;;;;;;5.13;4.63;;;13.20;99.90;;;;;;481726;247;28675;-69
2021/07/23 04:55:13;;;;;;;5.20;4.40;;;13.30;99.90;;;;;;481742;247;28634;-69
2021/07/23 04:57:15;;;;;;;5.00;4.50;;;13.40;99.90;;;;;;481693;247;28465;-69
2021/07/23 04:59:14;;;;;;;5.03;4.43;;;13.50;99.90;;;;;;481664;247;28802;-70
2021/07/23 05:01:17;;;;;;;4.80;4.30;;;13.50;99.90;;;;;;481681;247;28448;-69
2021/07/23 05:03:17;;;;;;;4.87;4.37;;;13.50;99.90;;;;;;481661;247;28243;-69
2021/07/23 05:05:19;;;;;;;4.90;4.40;;;13.60;99.90;;;;;;481769;247;28271;-70
2021/07/23 05:07:19;;;;;;;5.10;4.37;;;13.60;99.90;;;;;;481565;247;28314;-70
2021/07/23 05:09:21;;;;;;;7.67;4.27;;;13.70;99.90;;;;;;481791;247;28382;-71
2021/07/23 05:11:22;;;;;;;5.40;4.90;;;13.70;99.90;;;;;;481676;247;28260;-69
2021/07/23 05:13:23;;;;;;;5.00;4.37;;;13.70;99.90;;;;;;481742;247;28370;-70
2021/07/23 05:15:24;;;;;;;5.70;5.07;;;13.80;99.90;;;;;;481669;247;28949;-70
2021/07/23 05:17:26;;;;;;;4.70;4.30;;;13.80;99.90;;;;;;467053;254;29251;-69
2021/07/23 05:19:27;;;;;;;5.00;4.50;;;13.90;99.90;;;;;;481721;247;29012;-70
2021/07/23 05:21:28;;;;;;;4.50;4.10;;;13.90;99.90;;;;;;481739;247;29047;-69
2021/07/23 05:23:29;;;;;;;5.40;4.53;;;14.00;99.90;;;;;;481743;247;28305;-69
2021/07/23 05:25:31;;;;;;;4.80;4.37;;;14.00;99.90;;;;;;481760;247;28375;-70
2021/07/23 05:27:32;;;;;;;4.60;4.20;;;14.10;99.90;;;;;;481774;247;28793;-69
2021/07/23 05:29:33;;;;;;;5.03;4.53;;;14.10;99.90;;;;;;481750;247;28659;-70
2021/07/23 05:31:35;;;;;;;4.63;4.23;;;14.10;99.90;;;;;;481770;247;28327;-69
2021/07/23 05:33:36;;;;;;;5.40;4.90;;;14.10;99.90;;;;;;481784;247;27504;-69
2021/07/23 05:35:39;;;;;;;6.00;4.80;;;;;;;;;;481739;247;29116;-71
2021/07/23 05:37:40;;;;;;;5.37;4.40;;;14.20;99.90;;;;;;464246;256;28173;-71
2021/07/23 05:39:42;;;;;;;4.93;4.43;;;;;;;;;;481758;247;28835;-71
2021/07/23 05:41:44;;;;;;;4.57;4.17;;;;;;;;;;464254;256;28176;-71
2021/07/23 05:43:46;;;;;;;4.63;4.13;;;;;;;;;;481692;247;27533;-71
2021/07/23 05:45:47;;;;;;;11.03;4.90;;;14.30;99.90;;;;;;464246;256;27577;-70
2021/07/23 05:47:50;;;;;;;5.00;4.53;;;;;;;;;;481731;246;28810;-71
2021/07/23 05:49:52;;;;;;;4.47;4.07;;;;;;;;;;464217;256;28014;-69
2021/07/23 05:51:53;;;;;;;5.50;3.93;;;14.60;99.90;;;;;;481622;247;27521;-69
2021/07/23 05:53:54;;;;;;;5.33;4.20;;;14.70;99.90;;;;;;480850;247;28860;-69
2021/07/23 05:55:56;;;;;;;4.10;3.70;;;;;;;;;;480963;247;28683;-69
2021/07/23 05:57:57;;;;;;;5.60;4.30;;;14.80;99.90;;;;;;464066;256;27584;-69
2021/07/23 05:59:59;;;;;;;4.63;4.13;;;14.90;99.90;;;;;;481501;246;28972;-69
2021/07/23 06:02:00;;;;;;;4.83;4.33;;;14.90;99.90;;;;;;481689;247;28882;-71
2021/07/23 06:04:01;;;;;;;5.00;4.50;;;14.90;99.90;;;;;;481723;247;28645;-71
2021/07/23 06:06:02;;;;;;;4.60;4.10;;;15.00;99.90;;;;;;481745;247;28985;-71
2021/07/23 06:08:04;;;;;;;4.97;3.90;;;15.10;99.90;;;;;;481727;247;28806;-71
2021/07/23 06:10:05;;;;;;;4.53;4.10;;;15.20;99.90;;;;;;481746;247;28810;-71
2021/07/23 06:12:06;;;;;;;4.90;4.40;;;15.20;99.90;;;;;;481738;247;29346;-71
2021/07/23 06:14:07;;;;;;;4.83;4.30;;;15.30;99.90;;;;;;481727;247;29388;-71
2021/07/23 06:16:11;;;;;;;5.33;4.17;;;15.30;99.90;;;;;;481716;247;29305;-71
2021/07/23 06:18:10;;;;;;;5.23;4.33;;;15.40;99.90;;;;;;481595;247;29010;-68
2021/07/23 06:20:11;;;;;;;5.20;4.50;;;15.50;99.90;;;;;;481738;247;28842;-71
2021/07/23 06:22:15;;;;;;;5.30;4.40;;;15.50;99.90;;;;;;481730;247;28894;-69
2021/07/23 06:24:14;;;;;;;4.10;3.80;;;15.60;99.90;;;;;;466950;254;28821;-69
2021/07/23 06:26:15;;;;;;;4.33;3.93;;;15.70;99.90;;;;;;481766;247;28842;-71
2021/07/23 06:28:16;;;;;;;4.80;4.40;;;15.70;99.90;;;;;;481755;247;28906;-71
2021/07/23 06:30:17;;;;;;;4.60;4.20;;;15.80;99.90;;;;;;481755;247;28941;-71
2021/07/23 06:32:19;;;;;;;5.13;4.70;;;15.90;99.90;;;;;;481724;247;28930;-71
2021/07/23 06:34:20;;;;;;;4.63;4.23;;;16.00;99.90;;;;;;481730;247;29354;-71
2021/07/23 06:36:21;;;;;;;6.30;4.17;;;16.00;99.90;;;;;;481751;247;29349;-71
2021/07/23 06:38:22;;;;;;;4.80;4.30;;;16.10;99.90;;;;;;481745;247;29487;-71
2021/07/23 06:40:24;;;;;;;4.77;4.30;;;16.20;99.90;;;;;;481734;247;29371;-70
2021/07/23 06:42:25;;;;;;;4.93;4.43;;;16.20;99.90;;;;;;481732;247;28886;-70
2021/07/23 06:44:28;;;;;;;4.57;4.17;;;16.40;99.90;;;;;;481724;247;28886;-70
2021/07/23 06:46:27;;;;;;;4.80;3.93;;;16.50;99.90;;;;;;481565;247;28926;-72
2021/07/23 06:48:29;;;;;;;4.40;4.00;;;16.50;99.90;;;;;;481744;247;28797;-71
2021/07/23 06:50:33;;;;;;;5.67;4.63;;;16.60;99.90;;;;;;481733;247;28933;-71
2021/07/23 06:52:31;;;;;;;4.70;4.27;;;16.70;99.90;;;;;;466775;254;28824;-71
2021/07/23 06:54:34;;;;;;;4.87;4.40;;;16.80;99.90;;;;;;481721;247;28901;-71
2021/07/23 06:56:34;;;;;;;5.87;4.77;;;17.00;99.90;;;;;;481598;247;28766;-71
2021/07/23 06:58:35;;;;;;;4.90;4.40;;;17.20;99.90;;;;;;481721;247;28961;-70
2021/07/23 07:00:36;;;;;;;6.53;5.03;;;17.40;99.90;;;;;;481726;247;29334;-70
2021/07/23 07:02:37;;;;;;;5.53;5.03;;;17.60;99.90;;;;;;481698;246;29348;-72
2021/07/23 07:04:39;;;;;;;8.00;5.33;;;17.80;99.90;;;;;;481729;247;29300;-71
2021/07/23 07:06:40;;;;;;;6.40;5.50;;;18.00;99.90;;;;;;481727;247;29416;-71
2021/07/23 07:08:42;;;;;;;7.20;5.57;;;18.60;99.90;;;;;;481729;247;28814;-72
2021/07/23 07:10:42;;;;;;;5.90;5.27;;;18.80;99.90;;;;;;481726;247;28907;-72
2021/07/23 07:12:44;;;;;;;7.10;5.23;;;18.90;99.90;;;;;;467078;254;28816;-71
2021/07/23 07:14:45;;;;;;;6.00;4.97;;;18.90;99.90;;;;;;481739;247;28828;-71
2021/07/23 07:16:46;;;;;;;7.23;5.73;;;19.10;99.90;;;;;;481712;247;28901;-71
2021/07/23 07:18:47;;;;;;;6.40;4.93;;;19.20;99.90;;;;;;481713;247;28903;-71
2021/07/23 07:20:49;;;;;;;6.73;5.50;;;19.20;99.90;;;;;;481735;247;28836;-71
2021/07/23 07:22:53;;;;;;;6.20;5.50;;;;;;;;;;481736;247;28880;-71
2021/07/23 07:24:55;;;;;;;5.93;4.93;;;;;;;;;;464252;256;26435;-71
2021/07/23 07:26:57;;;;;;;6.73;5.67;;;;;;;;;;481741;247;27444;-71
2021/07/23 07:28:58;;;;;;;6.43;5.30;;;19.70;99.90;;;;;;464237;254;28110;-71
2021/07/23 07:30:59;;;;;;;7.60;6.00;;;19.70;99.90;;;;;;481704;246;29316;-71
2021/07/23 07:33:01;;;;;;;14.10;5.80;;;19.60;99.90;;;;;;481729;247;29228;-69
2021/07/23 07:35:02;;;;;;;6.67;5.60;;;19.80;99.90;;;;;;481730;247;28831;-71
2021/07/23 07:37:03;;;;;;;6.27;5.10;;;19.80;99.90;;;;;;481723;247;28924;-71
2021/07/23 07:39:04;;;;;;;7.30;5.87;;;19.90;99.90;;;;;;481731;247;28891;-69
2021/07/23 07:41:06;;;;;;;7.43;5.67;;;19.90;99.90;;;;;;481720;247;28895;-70
2021/07/23 07:43:07;;;;;;;7.53;5.47;;;19.90;99.90;;;;;;481727;247;28861;-70
2021/07/23 07:45:08;;;;;;;7.23;5.40;;;19.90;99.90;;;;;;481723;247;28892;-71
2021/07/23 07:47:09;;;;;;;8.23;5.30;;;19.90;99.90;;;;;;481746;247;28847;-71
2021/07/23 07:49:11;;;;;;;8.30;5.67;;;19.90;99.90;;;;;;481735;247;28892;-71
2021/07/23 07:51:14;;;;;;;6.47;5.27;;;;;;;;;;481749;247;29384;-71
2021/07/23 07:53:15;;;;;;;7.60;5.77;;;20.00;99.90;;;;;;464252;256;26494;-72
2021/07/23 07:55:16;;;;;;;6.83;6.00;;;20.20;99.90;;;;;;481751;246;28883;-71
2021/07/23 07:57:17;;;;;;;7.30;5.50;;;20.10;99.90;;;;;;481743;247;28847;-71
2021/07/23 07:59:22;;;;;;;6.87;5.17;;;;;;;;;;481723;247;28889;-71
2021/07/23 08:01:24;;;;;;;8.57;6.17;;;;;;;;;;464279;256;26919;-72
2021/07/23 08:03:25;;;;;;;6.50;5.70;;;20.40;99.90;;;;;;481723;247;27532;-71
2021/07/23 08:05:26;;;;;;;6.33;5.70;;;20.40;99.90;;;;;;481136;247;28875;-70
2021/07/23 08:07:33;;;;;;;6.40;5.80;;;20.40;99.90;;;;;;481553;247;28937;-71
2021/07/23 08:09:36;;;;;;;13.33;6.17;;;20.50;99.90;;;;;;481559;247;29263;-70
2021/07/23 08:11:33;;;;;;;8.00;6.67;;;20.50;99.90;;;;;;481501;247;29465;-70
2021/07/23 08:13:35;;;;;;;7.63;6.30;;;;;;;;;;481775;247;29303;-71
2021/07/23 08:15:36;;;;;;;6.83;5.50;;;20.70;99.90;;;;;;464293;256;26463;-71
2021/07/23 08:17:38;;;;;;;8.10;6.37;;;20.70;99.90;;;;;;481771;246;28869;-71
2021/07/23 08:19:39;;;;;;;7.90;7.10;;;20.70;99.90;;;;;;481749;247;28882;-69
2021/07/23 08:21:40;;;;;;;8.87;6.90;;;20.70;99.90;;;;;;481770;247;29338;-69
2021/07/23 08:23:41;;;;;;;9.17;6.80;;;20.80;99.90;;;;;;481751;247;29352;-69
2021/07/23 08:25:43;;;;;;;10.60;6.90;;;20.80;99.90;;;;;;481784;247;29303;-70
2021/07/23 08:27:44;;;;;;;9.23;6.50;;;20.90;99.90;;;;;;481766;247;28861;-69
2021/07/23 08:29:45;;;;;;;8.30;6.37;;;20.90;99.90;;;;;;481760;247;28874;-71
2021/07/23 08:31:46;;;;;;;9.77;6.83;;;20.80;99.90;;;;;;481789;247;28782;-71
2021/07/23 08:33:48;;;;;;;10.30;6.73;;;20.90;99.90;;;;;;481746;247;28949;-71
2021/07/23 08:35:49;;;;;;;7.33;6.47;;;20.90;99.90;;;;;;481777;247;28880;-71
2021/07/23 08:37:50;;;;;;;9.20;7.00;;;20.90;99.90;;;;;;481770;247;28892;-71
2021/07/23 08:39:51;;;;;;;8.90;6.03;;;21.00;99.90;;;;;;467108;254;28828;-71
2021/07/23 08:41:53;;;;;;;10.53;6.50;;;20.90;99.90;;;;;;481771;247;28813;-71
2021/07/23 08:43:54;;;;;;;6.93;5.80;;;21.00;99.90;;;;;;481748;247;29246;-71
2021/07/23 08:45:55;;;;;;;7.20;5.87;;;21.00;99.90;;;;;;481773;247;29367;-72
2021/07/23 08:47:57;;;;;;;7.47;6.00;;;20.80;99.90;;;;;;481763;247;29275;-71
2021/07/23 08:49:58;;;;;;;7.57;6.13;;;20.90;99.90;;;;;;481764;247;28975;-71
2021/07/23 08:51:59;;;;;;;8.87;6.80;;;21.30;99.90;;;;;;481785;247;28888;-71
2021/07/23 08:54:00;;;;;;;7.77;6.93;;;21.20;99.90;;;;;;481787;247;28924;-71
2021/07/23 08:56:02;;;;;;;7.67;6.53;;;21.20;99.90;;;;;;481770;247;28872;-71
2021/07/23 08:58:03;;;;;;;9.03;6.70;;;21.30;99.90;;;;;;481745;247;28900;-70
2021/07/23 09:00:04;;;;;;;9.20;6.50;;;21.10;99.90;;;;;;481771;247;28996;-71
2021/07/23 09:02:05;;;;;;;9.97;6.97;;;21.20;99.90;;;;;;481701;247;28901;-71
2021/07/23 09:04:06;;;;;;;7.50;6.43;;;21.40;99.90;;;;;;481732;247;28946;-71
2021/07/23 09:06:08;;;;;;;7.70;6.40;;;21.40;99.90;;;;;;481751;247;28796;-70
2021/07/23 09:08:09;;;;;;;8.40;5.80;;;21.20;99.90;;;;;;481752;247;29273;-70
2021/07/23 09:10:12;;;;;;;7.67;6.13;;;21.20;99.90;;;;;;481751;247;29362;-70
2021/07/23 09:12:11;;;;;;;8.83;6.70;;;21.30;99.90;;;;;;481661;247;29345;-71
2021/07/23 09:14:13;;;;;;;8.07;6.63;;;21.30;99.90;;;;;;481733;247;29436;-70
2021/07/23 09:16:14;;;;;;;9.60;7.13;;;21.40;99.90;;;;;;467081;254;28835;-70
2021/07/23 09:18:15;;;;;;;6.57;5.83;;;21.40;99.90;;;;;;481747;247;28956;-71
2021/07/23 09:20:16;;;;;;;8.20;5.97;;;21.30;99.90;;;;;;481722;247;28859;-70
2021/07/23 09:22:18;;;;;;;7.00;6.27;;;21.40;99.90;;;;;;481750;247;28892;-70
2021/07/23 09:24:19;;;;;;;8.07;6.70;;;21.40;99.90;;;;;;481733;247;28964;-69
2021/07/23 09:26:20;;;;;;;8.73;6.13;;;21.60;99.90;;;;;;481762;247;28870;-69
2021/07/23 09:28:22;;;;;;;7.47;6.33;;;21.50;99.90;;;;;;481728;247;29030;-71
2021/07/23 09:30:23;;;;;;;7.83;5.73;;;21.70;99.90;;;;;;481741;247;28892;-71
2021/07/23 09:32:24;;;;;;;6.73;5.50;;;21.60;99.90;;;;;;481735;247;29363;-71
2021/07/23 09:34:25;;;;;;;7.93;6.50;;;22.00;99.90;;;;;;481734;247;29359;-71
2021/07/23 09:36:26;;;;;;;8.60;5.33;;;22.00;99.90;;;;;;481742;247;29336;-70
2021/07/23 09:38:28;;;;;;;10.13;7.70;;;22.00;99.90;;;;;;481748;247;29443;-70
2021/07/23 09:40:29;;;;;;;7.43;6.17;;;21.80;99.90;;;;;;481743;247;28752;-71
2021/07/23 09:42:30;;;;;;;10.63;7.20;;;21.80;99.90;;;;;;481748;247;28963;-70
2021/07/23 09:44:31;;;;;;;7.43;6.60;;;21.90;99.90;;;;;;481750;247;28768;-70
2021/07/23 09:46:36;;;;;;;6.63;5.93;;;21.90;99.90;;;;;;481744;247;28984;-70
2021/07/23 09:48:37;;;;;;;6.80;6.10;;;21.90;99.90;;;;;;481745;247;28988;-70
2021/07/23 09:50:43;;;;;;;7.27;6.33;;;22.00;99.90;;;;;;481776;247;28791;-70
2021/07/23 09:52:40;;;;;;;9.70;7.03;;;22.10;99.90;;;;;;466712;254;28835;-71
2021/07/23 09:54:41;;;;;;;8.53;7.03;;;22.00;99.90;;;;;;481773;246;28887;-71
2021/07/23 09:56:43;;;;;;;7.50;6.70;;;22.10;99.90;;;;;;481771;247;29255;-70
2021/07/23 09:58:43;;;;;;;8.77;7.23;;;22.20;99.90;;;;;;481715;247;29261;-71
2021/07/23 10:00:45;;;;;;;9.13;7.27;;;22.40;99.90;;;;;;481668;247;29444;-72
2021/07/23 10:02:46;;;;;;;8.57;6.77;;;22.40;99.90;;;;;;481755;247;29240;-71
2021/07/23 10:04:47;;;;;;;9.50;7.77;;;22.20;99.90;;;;;;481744;247;29344;-71
2021/07/23 10:06:49;;;;;;;8.10;7.17;;;22.40;99.90;;;;;;481750;247;28888;-70
2021/07/23 10:08:50;;;;;;;8.57;7.20;;;22.30;99.90;;;;;;481728;247;28854;-71
2021/07/23 10:10:51;;;;;;;7.90;6.50;;;22.40;99.90;;;;;;481766;247;28959;-71
2021/07/23 10:12:52;;;;;;;8.27;6.80;;;22.20;99.90;;;;;;481748;247;28853;-71
2021/07/23 10:14:53;;;;;;;9.87;7.57;;;22.30;99.90;;;;;;481759;247;28882;-71
2021/07/23 10:16:55;;;;;;;9.50;8.07;;;22.40;99.90;;;;;;481764;247;28927;-71
2021/07/23 10:18:56;;;;;;;9.67;7.80;;;22.50;99.90;;;;;;481729;247;28928;-71
2021/07/23 10:20:57;;;;;;;8.43;7.50;;;22.40;99.90;;;;;;481762;247;28868;-71
2021/07/23 10:22:58;;;;;;;9.33;7.77;;;22.40;99.90;;;;;;481751;247;28872;-71
2021/07/23 10:25:00;;;;;;;9.00;7.80;;;22.20;99.90;;;;;;481707;247;29361;-71
2021/07/23 10:27:01;;;;;;;11.47;8.27;;;22.40;99.90;;;;;;481741;247;30088;-71
2021/07/23 10:29:03;;;;;;;8.33;7.37;;;22.70;99.90;;;;;;481673;247;29388;-71
2021/07/23 10:31:03;;;;;;;9.33;7.67;;;22.80;99.90;;;;;;481671;247;28805;-71
2021/07/23 10:33:05;;;;;;;9.33;7.70;;;22.80;99.90;;;;;;481726;247;28882;-71
2021/07/23 10:35:06;;;;;;;7.10;6.40;;;22.60;99.90;;;;;;481734;247;28877;-71
2021/07/23 10:37:07;;;;;;;7.50;6.70;;;22.40;99.90;;;;;;481729;247;28940;-71
2021/07/23 10:39:08;;;;;;;7.47;6.50;;;22.30;99.90;;;;;;467074;254;28795;-71
2021/07/23 10:41:11;;;;;;;6.87;6.17;;;22.40;99.90;;;;;;464237;255;28981;-71
2021/07/23 10:43:11;;;;;;;8.37;6.50;;;22.60;99.90;;;;;;481661;247;28868;-71
2021/07/23 10:45:14;;;;;;;7.30;6.10;;;22.70;99.90;;;;;;481734;247;28880;-71
2021/07/23 10:47:13;;;;;;;8.43;6.40;;;22.90;99.90;;;;;;481602;247;29826;-71
2021/07/23 10:49:15;;;;;;;7.90;6.80;;;23.00;99.90;;;;;;481527;247;29300;-70
2021/07/23 10:51:16;;;;;;;7.20;6.27;;;23.20;99.90;;;;;;481711;247;29403;-71
2021/07/23 10:53:17;;;;;;;6.93;6.20;;;23.10;99.90;;;;;;481706;247;29307;-71